createdAt,value
2023-01-04T00:01:26.242Z,9.87
2023-01-04T00:03:54.680Z,9.85
2023-01-04T00:06:23.943Z,9.86
2023-01-04T00:08:52.329Z,9.84
2023-01-04T00:11:23.116Z,9.86
2023-01-04T00:13:57.056Z,9.81
2023-01-04T00:16:28.271Z,9.75
2023-01-04T00:18:58.031Z,9.74
2023-01-04T00:21:33.915Z,9.74
2023-01-04T00:24:11.974Z,9.76
2023-01-04T00:26:40.369Z,9.74
2023-01-04T00:29:11.183Z,9.74
2023-01-04T00:31:40.549Z,9.73
2023-01-04T00:34:08.980Z,9.71
2023-01-04T00:36:37.473Z,9.70
2023-01-04T00:39:09.117Z,9.65
2023-01-04T00:42:01.991Z,9.62
2023-01-04T00:44:26.785Z,9.58
2023-01-04T00:46:55.315Z,9.61
2023-01-04T00:49:29.903Z,9.63
2023-01-04T00:52:03.283Z,9.60
2023-01-04T00:54:31.803Z,9.57
2023-01-04T00:57:00.180Z,9.59
2023-01-04T00:59:31.421Z,9.58
2023-01-04T01:02:00.115Z,9.60
2023-01-04T01:04:28.592Z,9.60
2023-01-04T01:07:00.508Z,9.61
2023-01-04T01:09:28.818Z,9.62
2023-01-04T01:11:57.103Z,9.63
2023-01-04T01:14:26.779Z,9.65
2023-01-04T01:16:58.447Z,9.63
2023-01-04T01:22:53.263Z,9.62
2023-01-04T01:25:21.777Z,9.62
2023-01-04T01:28:09.226Z,9.60
2023-01-04T01:31:08.796Z,9.63
2023-01-04T01:33:39.149Z,9.64
2023-01-04T01:36:08.906Z,9.68
2023-01-04T01:38:40.572Z,9.72
2023-01-04T01:41:13.217Z,9.76
2023-01-04T01:43:54.728Z,9.77
2023-01-04T01:46:42.078Z,9.75
2023-01-04T02:03:39.570Z,9.75
2023-01-04T02:07:13.308Z,9.95
2023-01-04T02:09:42.891Z,9.99
2023-01-04T02:12:17.962Z,10.01
2023-01-04T02:14:50.315Z,10.04
2023-01-04T02:17:18.506Z,10.05
2023-01-04T02:20:14.156Z,10.08
2023-01-04T02:23:19.092Z,10.09
2023-01-04T02:26:10.238Z,10.05
2023-01-04T02:28:52.245Z,10.01
2023-01-04T02:31:26.774Z,9.97
2023-01-04T02:34:19.912Z,9.99
2023-01-04T02:37:15.301Z,9.95
2023-01-04T02:40:17.161Z,9.93
2023-01-04T02:43:13.825Z,9.95
2023-01-04T02:46:04.173Z,9.96
2023-01-04T02:48:58.460Z,9.98
2023-01-04T02:51:35.200Z,9.96
2023-01-04T02:54:22.665Z,9.92
2023-01-04T02:56:50.871Z,9.94
2023-01-04T02:59:57.216Z,9.97
2023-01-04T03:03:21.817Z,9.96
2023-01-04T03:06:19.180Z,9.94
2023-01-04T03:09:06.066Z,9.97
2023-01-04T03:12:09.734Z,9.95
2023-01-04T03:14:45.097Z,9.97
2023-01-04T03:17:15.920Z,10.01
2023-01-04T03:19:57.859Z,10.06
2023-01-04T03:22:52.533Z,10.07
2023-01-04T03:25:44.790Z,10.04
2023-01-04T03:28:33.178Z,9.97
2023-01-04T03:31:30.303Z,9.90
2023-01-04T03:34:17.299Z,9.84
2023-01-04T03:37:01.664Z,9.81
2023-01-04T03:40:06.515Z,9.80
2023-01-04T03:43:16.275Z,9.88
2023-01-04T03:46:11.673Z,9.88
2023-01-04T03:48:51.921Z,9.83
2023-01-04T03:51:33.523Z,9.80
2023-01-04T03:54:05.003Z,9.73
2023-01-04T03:56:37.166Z,9.70
2023-01-04T03:59:06.576Z,9.68
2023-01-04T04:01:36.323Z,9.66
2023-01-04T04:04:23.066Z,9.65
2023-01-04T04:07:10.127Z,9.64
2023-01-04T04:09:38.392Z,9.73
2023-01-04T04:12:06.812Z,9.79
2023-01-04T04:14:35.309Z,9.83
2023-01-04T04:17:03.796Z,9.78
2023-01-04T04:19:32.109Z,9.71
2023-01-04T04:22:00.371Z,9.70
2023-01-04T04:24:29.014Z,9.66
2023-01-04T04:26:57.270Z,9.60
2023-01-04T04:29:26.669Z,9.59
2023-01-04T04:31:55.060Z,9.57
2023-01-04T04:34:23.450Z,9.54
2023-01-04T04:36:51.763Z,9.52
2023-01-04T04:39:20.050Z,9.49
2023-01-04T04:41:48.267Z,9.48
2023-01-04T04:44:21.065Z,9.45
2023-01-04T04:46:50.399Z,9.42
2023-01-04T04:49:19.194Z,9.39
2023-01-04T04:51:48.434Z,9.38
2023-01-04T04:54:20.418Z,9.38
2023-01-04T04:56:50.548Z,9.37
2023-01-04T04:59:18.814Z,9.35
2023-01-04T05:01:47.269Z,9.35
2023-01-04T05:04:17.493Z,9.34
2023-01-04T05:06:46.286Z,9.41
2023-01-04T05:09:15.450Z,9.50
2023-01-04T05:12:02.540Z,9.50
2023-01-04T05:14:30.876Z,9.47
2023-01-04T05:16:59.109Z,9.51
2023-01-04T05:19:27.497Z,9.50
2023-01-04T05:21:55.712Z,9.48
2023-01-04T05:24:24.011Z,9.55
2023-01-04T05:26:52.266Z,9.65
2023-01-04T05:29:39.529Z,9.69
2023-01-04T05:32:07.890Z,9.63
2023-01-04T05:34:36.259Z,9.54
2023-01-04T05:37:04.516Z,9.48
2023-01-04T05:39:32.778Z,9.43
2023-01-04T05:42:19.239Z,9.39
2023-01-04T05:44:47.505Z,9.37
2023-01-04T05:47:15.818Z,9.36
2023-01-04T05:49:44.774Z,9.37
2023-01-04T05:52:13.322Z,9.40
2023-01-04T05:54:42.134Z,9.47
2023-01-04T05:57:11.028Z,9.49
2023-01-04T05:59:42.079Z,9.48
2023-01-04T06:02:17.224Z,9.46
2023-01-04T06:04:45.584Z,9.51
2023-01-04T06:07:14.496Z,9.57
2023-01-04T06:09:43.542Z,9.56
2023-01-04T06:12:12.232Z,9.54
2023-01-04T06:14:41.454Z,9.52
2023-01-04T06:17:10.456Z,9.53
2023-01-04T06:19:39.161Z,9.50
2023-01-04T06:22:07.832Z,9.49
2023-01-04T06:24:36.382Z,9.49
2023-01-04T06:27:04.968Z,9.49
2023-01-04T06:29:33.396Z,9.49
2023-01-04T06:32:02.363Z,9.49
2023-01-04T06:34:31.437Z,9.46
2023-01-04T06:37:00.363Z,9.46
2023-01-04T06:39:28.832Z,9.47
2023-01-04T06:42:02.074Z,9.48
2023-01-04T06:44:34.252Z,9.47
2023-01-04T06:47:02.560Z,9.47
2023-01-04T06:49:31.062Z,9.55
2023-01-04T06:51:59.407Z,9.61
2023-01-04T06:54:27.896Z,9.64
2023-01-04T06:56:56.160Z,9.63
2023-01-04T06:59:24.390Z,9.61
2023-01-04T07:01:52.856Z,9.64
2023-01-04T07:04:21.257Z,9.62
2023-01-04T07:06:49.495Z,9.59
2023-01-04T07:09:17.897Z,9.55
2023-01-04T07:11:46.633Z,9.54
2023-01-04T07:14:14.913Z,9.64
2023-01-04T07:16:43.222Z,9.72
2023-01-04T07:19:11.582Z,9.74
2023-01-04T07:21:39.809Z,9.76
2023-01-04T07:24:08.308Z,9.74
2023-01-04T07:26:36.923Z,9.70
2023-01-04T07:29:21.032Z,9.64
2023-01-04T07:31:51.924Z,9.61
2023-01-04T07:34:22.110Z,9.65
2023-01-04T07:36:51.246Z,9.66
2023-01-04T07:39:20.218Z,9.63
2023-01-04T07:41:49.722Z,9.59
2023-01-04T07:44:22.593Z,9.57
2023-01-04T07:46:51.580Z,9.55
2023-01-04T07:49:20.102Z,9.54
2023-01-04T07:51:49.650Z,9.52
2023-01-04T07:54:19.128Z,9.54
2023-01-04T07:56:48.896Z,9.57
2023-01-04T07:59:18.609Z,9.57
2023-01-04T08:01:46.998Z,9.55
2023-01-04T08:04:16.819Z,9.58
2023-01-04T08:06:47.587Z,9.59
2023-01-04T08:09:15.936Z,9.66
2023-01-04T08:11:44.512Z,9.68
2023-01-04T08:14:13.612Z,9.64
2023-01-04T08:16:43.683Z,9.59
2023-01-04T08:19:21.374Z,9.57
2023-01-04T08:21:49.794Z,9.56
2023-01-04T08:24:22.496Z,9.53
2023-01-04T08:26:50.848Z,9.53
2023-01-04T08:29:20.034Z,9.57
2023-01-04T08:31:48.403Z,9.64
2023-01-04T08:34:16.731Z,9.64
2023-01-04T08:36:51.721Z,9.70
2023-01-04T08:39:20.174Z,9.74
2023-01-04T08:42:18.711Z,9.73
2023-01-04T08:44:45.791Z,9.69
2023-01-04T08:47:14.099Z,9.67
2023-01-04T08:49:42.351Z,9.63
2023-01-04T08:52:10.969Z,9.57
2023-01-04T08:54:39.193Z,9.57
2023-01-04T08:57:07.429Z,9.56
2023-01-04T08:59:35.708Z,9.57
2023-01-04T09:02:05.947Z,9.58
2023-01-04T09:04:34.642Z,9.56
2023-01-04T09:07:03.104Z,9.54
2023-01-04T09:09:31.858Z,9.53
2023-01-04T09:12:00.486Z,9.53
2023-01-04T09:14:28.785Z,9.58
2023-01-04T09:16:57.104Z,9.59
2023-01-04T09:19:25.426Z,9.56
2023-01-04T09:21:53.812Z,9.54
2023-01-04T09:24:22.395Z,9.50
2023-01-04T09:26:50.897Z,9.52
2023-01-04T09:29:19.758Z,9.55
2023-01-04T09:31:48.316Z,9.56
2023-01-04T09:34:17.897Z,9.56
2023-01-04T09:36:48.432Z,9.55
2023-01-04T09:39:23.018Z,9.53
2023-01-04T09:42:05.856Z,9.51
2023-01-04T09:47:31.042Z,9.45
2023-01-04T09:50:25.028Z,9.45
2023-01-04T09:53:14.003Z,9.46
2023-01-04T09:55:48.950Z,9.42
2023-01-04T09:58:40.775Z,9.43
2023-01-04T10:01:08.786Z,9.39
2023-01-04T10:03:43.114Z,9.39
2023-01-04T10:06:13.941Z,9.35
2023-01-04T10:08:43.984Z,9.34
2023-01-04T10:11:32.296Z,9.35
2023-01-04T10:14:15.714Z,9.34
2023-01-04T10:17:14.868Z,9.35
2023-01-04T10:22:46.738Z,9.34
2023-01-04T10:25:52.377Z,9.38
2023-01-04T10:28:47.803Z,9.41
2023-01-04T10:31:39.830Z,9.40
2023-01-04T10:34:18.725Z,9.38
2023-01-04T10:36:49.530Z,9.39
2023-01-04T10:39:21.821Z,9.41
2023-01-04T10:42:35.027Z,9.41
2023-01-04T10:45:12.240Z,9.38
2023-01-04T10:47:56.636Z,9.37
2023-01-04T10:50:49.296Z,9.43
2023-01-04T10:53:45.548Z,9.42
2023-01-04T10:56:25.813Z,9.41
2023-01-04T10:59:07.666Z,9.47
2023-01-04T11:01:56.861Z,9.50
2023-01-04T11:04:34.534Z,9.49
2023-01-04T11:07:24.814Z,9.45
2023-01-04T11:10:14.928Z,9.44
2023-01-04T11:12:43.332Z,9.49
2023-01-04T11:15:11.981Z,9.53
2023-01-04T11:17:40.956Z,9.60
2023-01-04T11:20:09.812Z,9.66
2023-01-04T11:22:49.476Z,9.66
2023-01-04T11:25:37.260Z,9.61
2023-01-04T11:28:50.659Z,9.58
2023-01-04T11:31:24.118Z,9.61
2023-01-04T11:34:04.840Z,9.59
2023-01-04T11:36:33.008Z,9.54
2023-01-04T11:39:01.215Z,9.51
2023-01-04T11:41:29.814Z,9.48
2023-01-04T11:44:07.005Z,9.48
2023-01-04T11:46:35.876Z,9.47
2023-01-04T11:49:04.170Z,9.45
2023-01-04T11:51:35.090Z,9.53
2023-01-04T11:54:18.719Z,9.54
2023-01-04T11:57:05.821Z,9.59
2023-01-04T11:59:39.196Z,9.62
2023-01-04T12:02:50.497Z,9.59
2023-01-04T12:05:26.212Z,9.57
2023-01-04T12:07:57.815Z,9.55
2023-01-04T12:10:28.146Z,9.56
2023-01-04T12:12:57.998Z,9.54
2023-01-04T12:15:52.358Z,9.53
2023-01-04T12:18:29.473Z,9.56
2023-01-04T12:20:58.580Z,9.56
2023-01-04T12:23:27.126Z,9.52
2023-01-04T12:25:56.807Z,9.50
2023-01-04T12:28:35.728Z,9.51
2023-01-04T12:31:22.737Z,9.49
2023-01-04T12:33:52.564Z,9.45
2023-01-04T12:36:40.628Z,9.46
2023-01-04T12:39:15.037Z,9.46
2023-01-04T12:42:03.358Z,9.41
2023-01-04T12:44:40.661Z,9.40
2023-01-04T12:47:45.982Z,9.35
2023-01-04T12:50:25.796Z,9.33
2023-01-04T12:53:28.330Z,9.35
2023-01-04T12:55:55.736Z,9.35
2023-01-04T12:58:57.979Z,9.32
2023-01-04T13:01:27.820Z,9.33
2023-01-04T13:04:05.139Z,9.40
2023-01-04T13:06:43.648Z,9.47
2023-01-04T13:09:25.361Z,9.46
2023-01-04T13:12:09.668Z,9.52
2023-01-04T13:14:44.677Z,9.49
2023-01-04T13:17:18.317Z,9.51
2023-01-04T13:19:46.979Z,9.53
2023-01-04T13:22:30.297Z,9.60
2023-01-04T13:25:00.964Z,9.65
2023-01-04T13:27:29.382Z,9.68
2023-01-04T13:29:58.524Z,9.71
2023-01-04T13:32:33.415Z,9.70
2023-01-04T13:35:16.347Z,9.60
2023-01-04T13:37:48.978Z,9.55
2023-01-04T13:40:30.604Z,9.53
2023-01-04T13:42:58.398Z,9.46
2023-01-04T13:45:47.403Z,9.44
2023-01-04T13:48:19.298Z,9.37
2023-01-04T13:51:17.252Z,9.31
2023-01-04T13:53:58.949Z,9.18
2023-01-04T13:56:28.012Z,9.04
2023-01-04T13:58:56.937Z,8.94
2023-01-04T14:01:35.985Z,8.89
2023-01-04T14:04:08.297Z,8.89
2023-01-04T14:06:48.633Z,8.92
2023-01-04T14:09:30.219Z,8.97
2023-01-04T14:12:08.872Z,8.97
2023-01-04T14:14:43.043Z,8.93
2023-01-04T14:17:16.266Z,8.90
2023-01-04T14:19:56.789Z,8.90
2023-01-04T14:22:36.364Z,8.88
2023-01-04T14:25:33.601Z,8.85
2023-01-04T14:28:20.655Z,8.83
2023-01-04T14:31:14.715Z,8.81
2023-01-04T14:33:48.713Z,8.83
2023-01-04T14:36:31.953Z,8.88
2023-01-04T14:39:09.473Z,8.88
2023-01-04T14:41:52.807Z,8.87
2023-01-04T14:44:28.576Z,8.83
2023-01-04T14:47:01.527Z,8.82
2023-01-04T14:49:30.263Z,8.81
2023-01-04T14:52:03.868Z,8.78
2023-01-04T14:54:34.425Z,8.75
2023-01-04T14:57:02.733Z,8.73
2023-01-04T14:59:31.079Z,8.75
2023-01-04T15:01:59.870Z,8.75
2023-01-04T15:04:28.429Z,8.79
2023-01-04T15:06:59.768Z,8.86
2023-01-04T15:09:31.670Z,8.90
2023-01-04T15:12:00.022Z,8.86
2023-01-04T15:14:28.296Z,8.83
2023-01-04T15:16:56.539Z,8.81
2023-01-04T15:19:24.792Z,8.82
2023-01-04T15:21:53.018Z,8.86
2023-01-04T15:24:21.383Z,8.89
2023-01-04T15:26:50.059Z,8.90
2023-01-04T15:29:18.483Z,8.92
2023-01-04T15:31:47.377Z,8.92
2023-01-04T15:34:15.781Z,8.96
2023-01-04T15:36:44.497Z,8.97
2023-01-04T15:39:17.276Z,9.04
2023-01-04T15:42:03.700Z,9.07
2023-01-04T15:44:32.025Z,9.07
2023-01-04T15:47:00.739Z,9.05
2023-01-04T15:49:31.661Z,9.07
2023-01-04T15:51:59.948Z,9.06
2023-01-04T15:54:31.391Z,9.08
2023-01-04T15:56:59.784Z,9.04
2023-01-04T15:59:28.046Z,9.03
2023-01-04T16:01:56.571Z,9.01
2023-01-04T16:04:25.208Z,8.99
2023-01-04T16:06:53.597Z,9.00
2023-01-04T16:09:21.850Z,9.02
2023-01-04T16:12:08.661Z,9.04
2023-01-04T16:14:36.850Z,9.02
2023-01-04T16:17:05.325Z,9.00
2023-01-04T16:19:35.058Z,9.04
2023-01-04T16:22:03.307Z,9.06
2023-01-04T16:27:20.207Z,9.11
2023-01-04T16:29:51.330Z,9.13
2023-01-04T16:32:19.717Z,9.15
2023-01-04T16:34:49.692Z,9.18
2023-01-04T16:37:18.653Z,9.22
2023-01-04T16:40:05.933Z,9.24
2023-01-04T16:42:34.955Z,9.25
2023-01-04T16:45:03.279Z,9.30
2023-01-04T16:47:40.076Z,9.34
2023-01-04T16:50:08.711Z,9.40
2023-01-04T16:52:36.912Z,9.39
2023-01-04T16:55:05.937Z,9.41
2023-01-04T16:57:34.533Z,9.45
2023-01-04T17:00:02.932Z,9.45
2023-01-04T17:02:31.336Z,9.46
2023-01-04T17:05:01.666Z,9.48
2023-01-04T17:07:33.547Z,9.46
2023-01-04T17:10:02.050Z,9.47
2023-01-04T17:12:48.137Z,9.49
2023-01-04T17:18:06.387Z,9.54
2023-01-04T17:20:34.677Z,9.58
2023-01-04T17:23:03.004Z,9.62
2023-01-04T17:25:31.899Z,9.66
2023-01-04T17:28:00.185Z,9.70
2023-01-04T17:30:29.292Z,9.72
2023-01-04T17:32:57.477Z,9.73
2023-01-04T17:35:25.814Z,9.83
2023-01-04T17:37:54.091Z,9.90
2023-01-04T17:40:23.650Z,9.94
2023-01-04T17:42:52.381Z,10.01
2023-01-04T17:45:21.301Z,10.08
2023-01-04T17:47:49.714Z,10.17
2023-01-04T17:50:19.010Z,10.22
2023-01-04T17:52:51.721Z,10.29
2023-01-04T17:55:21.504Z,10.36
2023-01-04T17:57:49.736Z,10.41
2023-01-04T18:00:18.299Z,10.46
2023-01-04T18:02:46.648Z,10.50
2023-01-04T18:05:17.743Z,10.51
2023-01-04T18:07:46.135Z,10.55
2023-01-04T18:10:26.975Z,10.59
2023-01-04T18:13:04.272Z,10.68
2023-01-04T18:15:36.240Z,10.73
2023-01-04T18:18:12.244Z,10.76
2023-01-04T18:20:41.099Z,10.79
2023-01-04T18:23:18.983Z,10.82
2023-01-04T18:25:52.432Z,10.87
2023-01-04T18:28:22.303Z,10.90
2023-01-04T18:30:51.279Z,10.91
2023-01-04T18:33:19.558Z,10.93
2023-01-04T18:35:47.847Z,10.95
2023-01-04T18:38:16.141Z,10.97
2023-01-04T18:40:44.455Z,11.01
2023-01-04T18:43:12.758Z,11.03
2023-01-04T18:45:44.355Z,11.06
2023-01-04T18:48:12.629Z,11.08
2023-01-04T18:50:40.909Z,11.10
2023-01-04T18:53:09.190Z,11.14
2023-01-04T18:55:40.181Z,11.16
2023-01-04T18:58:08.433Z,11.19
2023-01-04T19:00:36.733Z,11.23
2023-01-04T19:03:05.131Z,11.24
2023-01-04T19:05:33.541Z,11.27
2023-01-04T19:08:03.476Z,11.29
2023-01-04T19:10:31.871Z,11.30
2023-01-04T19:13:00.129Z,11.32
2023-01-04T19:15:28.399Z,11.33
2023-01-04T19:17:58.050Z,11.33
2023-01-04T19:20:26.316Z,11.35
2023-01-04T19:22:54.543Z,11.36
2023-01-04T19:25:28.032Z,11.38
2023-01-04T19:27:56.853Z,11.39
2023-01-04T19:30:25.409Z,11.40
2023-01-04T19:32:54.451Z,11.40
2023-01-04T19:35:22.868Z,11.43
2023-01-04T19:37:51.142Z,11.43
2023-01-04T19:40:19.494Z,11.45
2023-01-04T19:42:48.015Z,11.47
2023-01-04T19:45:16.973Z,11.48
2023-01-04T19:47:46.273Z,11.48
2023-01-04T19:50:14.639Z,11.50
2023-01-04T19:52:42.869Z,11.51
2023-01-04T19:55:11.913Z,11.51
2023-01-04T19:57:40.171Z,11.52
2023-01-04T20:00:09.462Z,11.54
2023-01-04T20:02:38.099Z,11.52
2023-01-04T20:05:07.812Z,11.51
2023-01-04T20:07:36.119Z,11.52
2023-01-04T20:10:09.046Z,11.51
2023-01-04T20:12:40.535Z,11.51
2023-01-04T20:15:09.397Z,11.51
2023-01-04T20:17:37.781Z,11.53
2023-01-04T20:20:06.401Z,11.54
2023-01-04T20:22:34.677Z,11.54
2023-01-04T20:25:02.907Z,11.55
2023-01-04T20:27:31.517Z,11.54
2023-01-04T20:29:59.994Z,11.56
2023-01-04T20:32:28.353Z,11.56
2023-01-04T20:34:56.602Z,11.55
2023-01-04T20:37:25.134Z,11.54
2023-01-04T20:39:53.395Z,11.54
2023-01-04T20:42:40.225Z,11.54
2023-01-04T20:45:09.062Z,11.53
2023-01-04T20:47:37.300Z,11.55
2023-01-04T20:50:05.926Z,11.56
2023-01-04T20:52:36.875Z,11.56
2023-01-04T20:55:05.597Z,11.56
2023-01-04T20:57:34.004Z,11.57
2023-01-04T21:00:02.238Z,11.57
2023-01-04T21:02:35.935Z,11.58
2023-01-04T21:05:06.564Z,11.58
2023-01-04T21:07:34.900Z,11.58
2023-01-04T21:10:03.228Z,11.58
2023-01-04T21:12:31.570Z,11.59
2023-01-04T21:15:00.175Z,11.60
2023-01-04T21:17:28.486Z,11.60
2023-01-04T21:19:56.742Z,11.62
2023-01-04T21:22:25.497Z,11.62
2023-01-04T21:24:53.815Z,11.64
2023-01-04T21:27:22.172Z,11.65
2023-01-04T21:29:50.413Z,11.66
2023-01-04T21:32:19.671Z,11.69
2023-01-04T21:34:47.888Z,11.71
2023-01-04T21:37:16.278Z,11.72
2023-01-04T21:39:44.543Z,11.75
2023-01-04T21:42:12.783Z,11.76
2023-01-04T21:44:41.136Z,11.77
2023-01-04T21:47:09.389Z,11.79
2023-01-04T21:49:37.703Z,11.79
2023-01-04T21:52:05.987Z,11.81
2023-01-04T21:54:34.222Z,11.84
2023-01-04T21:57:02.501Z,11.85
2023-01-04T21:59:30.960Z,11.86
2023-01-04T22:01:59.349Z,11.89
2023-01-04T22:04:27.776Z,11.90
2023-01-04T22:06:56.076Z,11.90
2023-01-04T22:09:24.734Z,11.92
2023-01-04T22:11:53.066Z,11.94
2023-01-04T22:14:21.469Z,11.96
2023-01-04T22:16:49.711Z,11.95
2023-01-04T22:19:17.994Z,11.95
2023-01-04T22:21:46.306Z,11.98
2023-01-04T22:24:15.527Z,12.00
2023-01-04T22:26:45.415Z,12.02
2023-01-04T22:29:13.818Z,12.04
2023-01-04T22:31:42.349Z,12.08
2023-01-04T22:34:10.678Z,12.13
2023-01-04T22:36:39.023Z,12.17
2023-01-04T22:39:07.887Z,12.19
2023-01-04T22:41:37.120Z,12.23
2023-01-04T22:44:07.265Z,12.26
2023-01-04T22:46:37.381Z,12.29
2023-01-04T22:49:05.828Z,12.31
2023-01-04T22:51:34.208Z,12.34
2023-01-04T22:54:06.462Z,12.34
2023-01-04T22:56:35.168Z,12.33
2023-01-04T22:59:03.567Z,12.31
2023-01-04T23:01:35.077Z,12.33
2023-01-04T23:04:04.063Z,12.33
2023-01-04T23:06:33.551Z,12.33
2023-01-04T23:09:08.691Z,12.34
2023-01-04T23:11:38.101Z,12.34
2023-01-04T23:14:08.596Z,12.33
2023-01-04T23:16:37.051Z,12.32
2023-01-04T23:19:07.356Z,12.31
2023-01-04T23:21:36.982Z,12.33
2023-01-04T23:24:06.393Z,12.32
2023-01-04T23:26:35.183Z,12.33
2023-01-04T23:29:04.353Z,12.33
2023-01-04T23:31:34.880Z,12.34
2023-01-04T23:34:05.689Z,12.35
2023-01-04T23:36:40.138Z,12.37
2023-01-04T23:39:13.190Z,12.38
2023-01-04T23:41:47.983Z,12.38
2023-01-04T23:47:08.140Z,12.39
2023-01-04T23:49:38.441Z,12.40
2023-01-04T23:52:10.651Z,12.43
2023-01-04T23:54:42.391Z,12.45
2023-01-04T23:57:16.268Z,12.48
2023-01-04T23:59:53.070Z,12.51
